Terminal Aerodrome Forecast
Issued by NWS Brownsville, TX

Home | Current Version | Previous Version | Text Only | Print | Product List | Glossary On
Versions: 1 2 3 4 5 6 7 8 9 10 11 12 13 14 15 16 17 18 19
000
FTUS44 KBRO 201100 CCA
TAFMFE
TAF COR
KMFE 201144Z 2012/2112 12007KT P6SM OVC070
     FM201600 14014KT P6SM BKN035 OVC200
     FM201900 15016G24KT P6SM BKN035
     FM210100 13014KT P6SM SCT025 OVC100
     FM210600 13012KT P6SM OVC015=

USA.gov is the U.S. government's official web portal to all federal, state and local government web resources and services.